Time;durP1;ratioP1;P1;durP2;ratioP2;P2;SDS_P1;SDS_P2;PMS_P1;PMS_P2;Temp;Humidity;BMP_temperature;BMP_pressure;BME280_temperature;BME280_humidity;BME280_pressure;Samples;Min_cycle;Max_cycle;Signal;HPM_P1;HPM_P2
2022/04/19 00:00:54;;;;;;;3.43;2.73;;;11.50;54.70;;;-142.21;90.11;112049.66;5077051;28;20449;-74
2022/04/19 00:03:23;;;;;;;3.77;2.70;;;11.50;54.70;;;-142.21;88.56;112049.66;5040697;28;20439;-75
2022/04/19 00:05:50;;;;;;;2.67;2.20;;;11.50;54.70;;;-142.21;87.89;112049.66;5092803;28;20981;-75
2022/04/19 00:08:18;;;;;;;3.83;2.60;;;11.40;54.80;;;-142.21;90.78;112049.66;5058710;28;20451;-75
2022/04/19 00:10:45;;;;;;;2.70;2.30;;;11.40;55.20;;;-142.21;89.68;112049.66;5076247;28;20538;-75
2022/04/19 00:13:17;;;;;;;3.77;2.37;;;11.40;55.50;;;-142.21;91.55;112049.66;5075673;28;20854;-75
2022/04/19 00:15:45;;;;;;;3.80;2.30;;;11.30;55.90;;;-142.21;92.71;112049.66;5091173;28;20462;-75
2022/04/19 00:18:12;;;;;;;5.87;2.67;;;11.30;55.90;;;-142.21;90.64;112049.66;5083814;28;21066;-75
2022/04/19 00:20:42;;;;;;;3.63;2.80;;;11.20;55.50;;;-142.21;92.25;112049.66;5089075;28;20500;-75
2022/04/19 00:23:12;;;;;;;2.93;2.50;;;11.30;55.50;;;-142.21;92.72;112049.66;5095327;28;20446;-75
2022/04/19 00:25:40;;;;;;;2.60;2.40;;;11.30;56.10;;;-142.21;90.21;112049.66;5093639;28;20439;-76
2022/04/19 00:28:08;;;;;;;2.97;2.40;;;11.40;55.50;;;-142.21;90.14;112049.66;5077962;28;20453;-75
2022/04/19 00:30:36;;;;;;;2.87;2.33;;;11.30;55.00;;;-142.21;92.06;112049.66;5081705;28;20475;-76
2022/04/19 00:33:04;;;;;;;3.13;2.83;;;11.30;55.80;;;-142.21;90.29;112049.66;5079109;28;20887;-75
2022/04/19 00:35:32;;;;;;;5.27;2.93;;;11.20;55.40;;;-142.21;90.27;112049.66;5086415;28;20565;-75
2022/04/19 00:38:00;;;;;;;6.53;2.70;;;11.10;55.50;;;-142.21;89.27;112049.66;5079399;28;20531;-75
2022/04/19 00:40:28;;;;;;;3.87;2.60;;;11.10;55.30;;;-142.21;89.61;112049.66;5084877;28;20450;-75
2022/04/19 00:42:55;;;;;;;3.30;2.80;;;11.00;55.00;;;-142.21;89.03;112049.66;5080477;28;20528;-75
2022/04/19 00:45:24;;;;;;;3.20;2.83;;;11.00;55.00;;;-142.21;88.69;112049.66;5075586;28;20443;-75
2022/04/19 00:47:53;;;;;;;3.37;2.80;;;10.90;54.90;;;-142.21;89.99;112049.66;5080397;28;20455;-75
2022/04/19 00:50:22;;;;;;;3.13;2.60;;;10.90;55.30;;;-142.21;93.27;112049.66;5094717;28;20478;-76
2022/04/19 00:52:49;;;;;;;5.63;3.17;;;10.80;55.20;;;-142.21;90.89;112049.66;5103690;28;20442;-76
2022/04/19 00:55:16;;;;;;;3.20;2.90;;;10.80;55.40;;;-142.21;90.40;112049.66;5090986;28;20478;-76
2022/04/19 00:57:45;;;;;;;3.20;2.70;;;10.80;55.60;;;-142.21;91.41;112049.66;5056363;28;20865;-75
2022/04/19 01:00:14;;;;;;;2.93;2.63;;;10.80;55.70;;;-142.21;88.86;112049.66;5094129;28;20455;-75
2022/04/19 01:02:42;;;;;;;3.30;3.00;;;10.80;55.40;;;-142.21;90.83;112049.66;5095278;28;20950;-75
2022/04/19 01:05:11;;;;;;;3.63;2.80;;;10.70;55.60;;;-142.21;90.59;112049.66;5087823;28;20447;-75
2022/04/19 01:07:39;;;;;;;4.60;3.03;;;10.70;55.40;;;-142.21;91.45;112049.66;5097949;28;20448;-76
2022/04/19 01:10:08;;;;;;;3.20;2.63;;;10.70;55.50;;;-142.21;89.08;112049.66;5085531;28;20456;-76
2022/04/19 01:15:21;;;;;;;3.13;2.83;;;10.60;55.60;;;-142.21;91.49;112049.66;5091492;28;20509;-76
2022/04/19 01:17:50;;;;;;;2.97;2.70;;;10.50;55.70;;;-142.21;92.38;112049.66;5095395;28;20483;-75
2022/04/19 01:20:19;;;;;;;4.33;3.10;;;10.50;55.80;;;-142.21;91.72;112049.66;5082072;28;20539;-75
2022/04/19 01:22:50;;;;;;;3.60;2.90;;;10.40;56.20;;;-142.21;91.51;112049.66;5080783;28;20458;-75
2022/04/19 01:25:19;;;;;;;3.13;2.83;;;10.40;56.70;;;-142.21;92.94;112049.66;5088600;28;20492;-75
2022/04/19 01:27:47;;;;;;;3.13;2.70;;;10.40;56.70;;;-142.21;93.40;112049.66;5090888;28;20488;-75
2022/04/19 01:30:19;;;;;;;3.00;2.70;;;10.40;56.70;;;-142.21;93.29;112049.66;5094229;28;20844;-75
2022/04/19 01:32:48;;;;;;;3.40;3.00;;;10.30;57.20;;;-142.21;96.01;112049.66;5091299;28;20445;-75
2022/04/19 01:35:18;;;;;;;4.83;3.00;;;10.30;56.80;;;-142.21;94.86;112049.66;5076573;28;20450;-76
2022/04/19 01:37:48;;;;;;;4.30;2.67;;;10.20;56.90;;;-142.21;97.08;112049.66;5074752;28;20447;-75
2022/04/19 01:40:20;;;;;;;4.70;2.93;;;10.10;57.20;;;-142.21;96.04;112049.66;5087032;28;20447;-76
2022/04/19 01:42:52;;;;;;;2.97;2.60;;;10.20;57.50;;;-142.21;96.32;112049.66;5059491;28;20812;-76
2022/04/19 01:45:21;;;;;;;3.37;2.80;;;10.20;57.50;;;-142.21;95.89;112049.66;5087678;28;20478;-75
2022/04/19 01:47:48;;;;;;;3.43;2.50;;;10.20;57.70;;;-142.21;96.39;112049.66;5075255;28;20447;-75
2022/04/19 01:50:18;;;;;;;5.07;2.50;;;10.10;57.40;;;-142.21;95.91;112049.66;5077997;28;20944;-75
2022/04/19 01:52:49;;;;;;;4.03;2.77;;;10.00;57.50;;;-142.21;95.89;112049.66;5073801;28;20443;-76
2022/04/19 01:55:18;;;;;;;3.97;2.83;;;10.00;57.80;;;-142.21;96.40;112049.66;5074312;28;20435;-75
2022/04/19 01:57:48;;;;;;;3.13;2.83;;;9.80;58.90;;;-142.21;98.78;112049.66;5075943;28;20446;-75
2022/04/19 02:00:17;;;;;;;2.77;2.50;;;9.80;58.90;;;-142.21;99.67;112049.66;5074209;28;20478;-75
2022/04/19 02:02:46;;;;;;;2.93;2.53;;;9.80;59.10;;;-142.21;97.43;112049.66;5074128;28;20448;-76
2022/04/19 02:05:14;;;;;;;3.17;2.70;;;9.80;58.80;;;-142.21;95.62;112049.66;5073846;28;20447;-76
2022/04/19 02:07:43;;;;;;;3.20;2.90;;;9.80;58.70;;;-142.21;95.23;112049.66;5088678;28;20522;-75
2022/04/19 02:10:15;;;;;;;3.10;2.80;;;9.90;57.90;;;-142.21;94.97;112049.66;5079675;28;20447;-76
2022/04/19 02:12:43;;;;;;;3.33;2.83;;;9.90;58.00;;;-142.21;96.34;112049.66;5087769;28;20461;-75
2022/04/19 02:15:15;;;;;;;5.00;3.00;;;9.80;58.20;;;-142.21;94.68;112049.66;5072967;28;20439;-75
2022/04/19 02:17:47;;;;;;;3.07;2.70;;;9.80;58.20;;;-142.21;96.00;112049.66;5087460;28;21189;-75
2022/04/19 02:20:16;;;;;;;3.30;2.93;;;9.70;58.80;;;-142.21;95.84;112049.66;5091596;28;20792;-75
2022/04/19 02:22:45;;;;;;;3.80;2.87;;;9.70;59.20;;;-142.21;97.70;112049.66;5092517;28;20504;-75
2022/04/19 02:25:16;;;;;;;4.37;3.33;;;9.70;59.00;;;-142.21;97.24;112049.66;5092697;28;20545;-75
2022/04/19 02:27:44;;;;;;;3.10;2.80;;;9.60;58.90;;;-142.21;97.17;112049.66;5079297;28;20439;-75
2022/04/19 02:30:15;;;;;;;3.47;2.83;;;9.70;58.90;;;-142.21;97.51;112049.66;5093280;28;20478;-75
2022/04/19 02:32:44;;;;;;;3.13;2.83;;;9.60;59.10;;;-142.21;99.81;112049.66;5080119;28;20443;-75
2022/04/19 02:35:11;;;;;;;3.27;2.83;;;9.60;59.30;;;-142.21;97.68;112049.66;5074008;28;20448;-75
2022/04/19 02:37:38;;;;;;;3.17;2.87;;;9.60;59.40;;;-142.21;98.11;112049.66;5082175;28;20486;-75
2022/04/19 02:40:07;;;;;;;2.83;2.60;;;9.50;59.30;;;-142.21;97.82;112049.66;5074675;28;20458;-75
2022/04/19 02:42:36;;;;;;;4.20;2.93;;;9.50;59.60;;;-142.21;99.87;112049.66;5078232;28;20894;-75
2022/04/19 02:45:04;;;;;;;3.37;3.07;;;9.40;59.60;;;-142.21;99.68;112049.66;5077173;28;20523;-75
2022/04/19 02:47:31;;;;;;;5.43;3.00;;;9.40;59.90;;;-142.21;98.59;112049.66;5083377;28;20547;-75
2022/04/19 02:49:58;;;;;;;2.93;2.30;;;9.40;60.10;;;-142.21;100.00;112049.66;5093011;28;20484;-75
2022/04/19 02:52:26;;;;;;;4.30;3.30;;;9.40;60.10;;;-142.21;98.55;112049.66;5050553;28;20435;-75
2022/04/19 02:54:53;;;;;;;3.30;3.00;;;9.40;60.00;;;-142.21;100.00;112049.66;5082487;28;20534;-75
2022/04/19 02:57:21;;;;;;;3.40;3.10;;;9.40;60.10;;;-142.21;99.83;112049.66;5104553;28;20993;-75
2022/04/19 02:59:50;;;;;;;3.53;3.07;;;9.40;60.40;;;-142.21;99.79;112049.66;5068283;28;20465;-75
2022/04/19 03:02:18;;;;;;;3.63;3.10;;;9.40;59.90;;;-142.21;99.40;112049.66;5092704;28;20470;-75
2022/04/19 03:04:45;;;;;;;3.90;2.80;;;9.40;59.60;;;-142.21;98.61;112049.66;5085218;28;20534;-75
2022/04/19 03:07:14;;;;;;;4.03;2.97;;;9.60;59.30;;;-142.21;98.79;112049.66;5072817;28;20454;-75
2022/04/19 03:09:41;;;;;;;7.87;3.00;;;9.60;59.30;;;-142.21;96.46;112049.66;5075421;28;20451;-75
2022/04/19 03:12:10;;;;;;;3.77;3.07;;;9.60;59.10;;;-142.21;98.13;112049.66;5077565;28;20835;-75
2022/04/19 03:14:38;;;;;;;3.60;3.30;;;9.50;59.70;;;-142.21;99.59;112049.66;5092217;28;20782;-75
2022/04/19 03:17:07;;;;;;;3.87;3.30;;;9.50;60.00;;;-142.21;98.87;112049.66;5084796;28;20499;-75
2022/04/19 03:19:34;;;;;;;3.73;3.30;;;9.40;60.10;;;-142.21;98.00;112049.66;5072471;28;20436;-75
2022/04/19 03:22:01;;;;;;;4.30;2.63;;;9.40;59.70;;;-142.21;98.14;112049.66;5078269;28;20450;-75
2022/04/19 03:30:21;;;;;;;3.67;3.13;;;9.40;59.90;;;-142.21;99.10;112049.66;5124565;27;20547;-74
2022/04/19 03:32:52;;;;;;;4.13;3.03;;;9.40;59.20;;;-142.21;98.61;112049.66;5089648;28;20443;-75
2022/04/19 03:35:20;;;;;;;3.23;2.87;;;9.50;59.20;;;-142.21;97.75;112049.66;5089576;28;20899;-75
2022/04/19 03:37:47;;;;;;;3.57;3.03;;;9.40;59.10;;;-142.21;98.72;112049.66;5089875;28;20447;-75
2022/04/19 03:40:16;;;;;;;3.47;2.57;;;9.30;59.80;;;-142.21;100.00;112049.66;5088950;28;20485;-75
2022/04/19 03:42:43;;;;;;;3.37;2.93;;;9.10;60.00;;;-142.21;99.30;112049.66;5089240;28;20509;-75
2022/04/19 03:45:12;;;;;;;4.03;3.00;;;9.10;60.20;;;-142.21;99.27;112049.66;5089283;28;20482;-75
2022/04/19 03:47:40;;;;;;;5.93;3.40;;;9.10;59.80;;;-142.21;99.27;112049.66;5089334;28;20806;-75
2022/04/19 03:50:08;;;;;;;3.67;3.13;;;9.30;60.40;;;-142.21;98.58;112049.66;5089132;28;20575;-74
2022/04/19 03:52:36;;;;;;;3.13;2.83;;;9.30;59.60;;;-142.21;98.93;112049.66;5082549;28;20451;-76
2022/04/19 03:55:04;;;;;;;3.97;3.17;;;9.10;60.00;;;-142.21;98.77;112049.66;5084053;28;20521;-75
2022/04/19 03:57:31;;;;;;;3.33;3.03;;;9.10;59.90;;;-142.21;98.86;112049.66;5089189;28;20453;-76
2022/04/19 03:59:58;;;;;;;3.50;2.80;;;9.10;60.00;;;-142.21;99.92;112049.66;5088869;28;20442;-75
2022/04/19 04:02:26;;;;;;;3.40;2.90;;;9.00;60.20;;;-142.21;100.00;112049.66;5087731;28;20874;-75
2022/04/19 04:04:56;;;;;;;4.27;3.03;;;8.90;60.40;;;-142.21;100.00;112049.66;5089182;28;20446;-75
2022/04/19 04:07:26;;;;;;;3.43;3.10;;;8.90;60.40;;;-142.21;100.00;112049.66;5088635;28;20534;-74
2022/04/19 04:09:54;;;;;;;3.70;3.30;;;8.90;60.70;;;-142.21;100.00;112049.66;5088615;28;20532;-75
2022/04/19 04:12:21;;;;;;;4.17;3.07;;;8.90;60.10;;;-142.21;100.00;112049.66;5089093;28;20872;-75
2022/04/19 04:14:48;;;;;;;3.93;3.00;;;8.90;60.30;;;-142.21;100.00;112049.66;5088809;28;20536;-74
2022/04/19 04:17:15;;;;;;;4.17;3.13;;;8.80;60.20;;;-142.21;99.64;112049.66;5053460;28;20447;-75
2022/04/19 04:19:43;;;;;;;6.93;3.37;;;8.70;61.10;;;-142.21;100.00;112049.66;5087693;28;20778;-74
2022/04/19 04:22:11;;;;;;;3.90;3.60;;;8.80;61.00;;;-142.21;100.00;112049.66;5083748;28;20451;-75
2022/04/19 04:24:38;;;;;;;3.83;3.43;;;8.90;60.90;;;-142.21;100.00;112049.66;5088126;28;20449;-74
2022/04/19 04:27:07;;;;;;;4.43;3.40;;;8.70;60.80;;;-142.21;100.00;112049.66;5089083;28;20526;-74
2022/04/19 04:29:34;;;;;;;4.47;3.20;;;8.70;61.20;;;-142.21;100.00;112049.66;5052815;28;20489;-76
2022/04/19 04:32:01;;;;;;;5.80;3.87;;;8.70;62.60;;;-142.21;100.00;112049.66;5089293;28;20514;-74
2022/04/19 04:34:29;;;;;;;4.13;3.10;;;8.70;63.00;;;-142.21;100.00;112049.66;5089702;28;20478;-75
2022/04/19 04:36:56;;;;;;;4.27;3.17;;;8.80;62.40;;;-142.21;100.00;112049.66;5089338;28;20485;-75
2022/04/19 04:39:24;;;;;;;3.77;3.47;;;8.80;62.20;;;-142.21;100.00;112049.66;5089360;28;20533;-75
2022/04/19 04:41:52;;;;;;;4.10;3.60;;;8.80;61.90;;;-142.21;100.00;112049.66;5074330;28;20447;-76
2022/04/19 04:44:19;;;;;;;4.43;3.47;;;8.70;61.70;;;-142.21;100.00;112049.66;5075373;28;20534;-74
2022/04/19 04:49:40;;;;;;;3.70;3.20;;;8.70;61.80;;;-142.21;100.00;112049.66;5054002;28;20479;-75
2022/04/19 04:52:10;;;;;;;5.07;3.33;;;8.70;61.70;;;-142.21;100.00;112049.66;5088201;28;20442;-76
2022/04/19 04:54:41;;;;;;;5.43;3.60;;;8.70;62.00;;;-142.21;100.00;112049.66;5076056;28;20486;-75
2022/04/19 04:57:10;;;;;;;4.40;3.60;;;8.60;62.50;;;-142.21;100.00;112049.66;5094980;28;20424;-77
2022/04/19 04:59:38;;;;;;;4.63;3.33;;;8.60;61.50;;;-142.21;100.00;112049.66;5083019;28;20432;-76
2022/04/19 05:02:07;;;;;;;4.90;3.40;;;8.70;61.70;;;-142.21;100.00;112049.66;5073208;28;20444;-75
2022/04/19 05:04:35;;;;;;;5.07;3.07;;;8.70;62.20;;;-142.21;100.00;112049.66;5056598;28;20472;-75
2022/04/19 05:07:04;;;;;;;3.60;3.17;;;8.70;61.30;;;-142.21;100.00;112049.66;5073665;28;20535;-76
2022/04/19 05:09:31;;;;;;;5.97;5.23;;;8.70;61.70;;;-142.21;100.00;112049.66;5074807;28;20877;-74
2022/04/19 05:12:00;;;;;;;3.23;2.93;;;8.70;62.40;;;-142.21;100.00;112049.66;5073928;28;20508;-75
2022/04/19 05:14:27;;;;;;;4.37;3.70;;;8.70;61.80;;;-142.21;100.00;112049.66;5074108;28;20856;-75
2022/04/19 05:16:55;;;;;;;3.77;3.30;;;8.70;61.90;;;-142.21;100.00;112049.66;5074414;28;20865;-75
2022/04/19 05:19:22;;;;;;;3.50;3.17;;;8.80;62.50;;;-142.21;100.00;112049.66;5074227;28;20443;-75
2022/04/19 05:21:49;;;;;;;4.37;3.40;;;8.80;62.40;;;-142.21;100.00;112049.66;5074126;28;20549;-75
2022/04/19 05:24:16;;;;;;;3.10;2.73;;;8.90;62.30;;;-142.21;100.00;112049.66;5074042;28;20439;-75
2022/04/19 05:26:43;;;;;;;4.90;2.80;;;9.10;61.70;;;-142.21;100.00;112049.66;5066445;28;20518;-75
2022/04/19 05:29:12;;;;;;;5.27;3.13;;;9.00;61.90;;;-142.21;100.00;112049.66;5073617;28;20906;-75
2022/04/19 05:31:39;;;;;;;5.10;3.63;;;9.00;61.90;;;-142.21;100.00;112049.66;5036714;28;20475;-74
2022/04/19 05:34:06;;;;;;;3.53;3.23;;;9.00;61.90;;;-142.21;100.00;112049.66;5074183;28;20530;-73
2022/04/19 05:36:35;;;;;;;3.67;3.33;;;9.10;62.50;;;-142.21;100.00;112049.66;5073471;28;20534;-74
2022/04/19 05:39:02;;;;;;;3.93;3.20;;;9.20;62.80;;;-142.21;100.00;112049.66;5073347;28;20435;-74
2022/04/19 05:41:29;;;;;;;4.10;3.33;;;9.30;62.20;;;-142.21;100.00;112049.66;5074133;28;20451;-74
2022/04/19 05:43:57;;;;;;;3.97;3.23;;;9.40;62.00;;;-142.21;100.00;112049.66;5073953;28;20974;-73
2022/04/19 05:46:25;;;;;;;3.73;3.43;;;9.50;62.20;;;-142.21;100.00;112049.66;5073344;28;20468;-74
2022/04/19 05:48:53;;;;;;;3.47;2.97;;;9.50;62.00;;;-142.21;100.00;112049.66;5071774;28;22633;-74
2022/04/19 05:51:20;;;;;;;5.30;3.13;;;9.60;62.70;;;-142.21;100.00;112049.66;5073879;28;20554;-73
2022/04/19 05:53:47;;;;;;;3.80;3.20;;;9.80;63.00;;;-142.21;100.00;112049.66;5072690;28;20448;-74
2022/04/19 05:56:14;;;;;;;4.13;3.17;;;9.90;62.30;;;-142.21;100.00;112049.66;5074183;28;20780;-73
2022/04/19 05:58:41;;;;;;;4.87;3.30;;;9.90;62.90;;;-142.21;100.00;112049.66;5073444;28;20487;-74
2022/04/19 06:01:08;;;;;;;4.23;3.23;;;10.00;61.60;;;-142.21;100.00;112049.66;5073676;28;20908;-72
2022/04/19 06:06:23;;;;;;;5.17;3.30;;;10.20;61.50;;;-142.21;100.00;112049.66;5072995;28;20653;-73
2022/04/19 06:08:51;;;;;;;4.40;3.00;;;10.40;60.30;;;-142.21;100.00;112049.66;5067992;28;20452;-73
2022/04/19 06:11:18;;;;;;;3.53;3.10;;;10.70;59.00;;;-142.21;100.00;112049.66;5065369;28;20447;-73
2022/04/19 06:13:45;;;;;;;3.07;2.87;;;10.90;58.30;;;-142.21;100.00;112049.66;5072856;28;20439;-73
2022/04/19 06:16:14;;;;;;;3.57;3.00;;;11.10;58.10;;;-142.21;100.00;112049.66;5071630;28;20454;-72
2022/04/19 06:18:42;;;;;;;3.30;3.00;;;11.20;58.00;;;-142.21;100.00;112049.66;5036254;28;20484;-73
2022/04/19 06:21:10;;;;;;;4.20;3.07;;;11.50;57.60;;;-142.21;100.00;112049.66;5056995;28;20451;-73
2022/04/19 06:23:37;;;;;;;6.40;3.40;;;11.70;58.00;;;-142.21;100.00;112049.66;5061263;28;20526;-73
2022/04/19 06:26:04;;;;;;;4.80;3.33;;;11.80;57.70;;;-142.21;100.00;112049.66;5070326;28;20482;-73
2022/04/19 06:28:31;;;;;;;3.67;3.30;;;11.90;57.50;;;-142.21;99.46;112049.66;5066695;28;20534;-74
2022/04/19 06:31:17;;;;;;;4.30;3.40;;;12.20;57.10;;;-142.21;97.73;112049.66;5064090;28;20653;-74
2022/04/19 06:33:45;;;;;;;4.93;3.07;;;12.80;55.70;;;-142.21;100.00;112049.66;5072572;28;20440;-73
2022/04/19 06:36:12;;;;;;;4.23;3.37;;;12.70;56.40;;;-142.21;100.00;112049.66;5071481;28;20469;-74
2022/04/19 06:38:39;;;;;;;4.57;3.67;;;12.70;56.90;;;-142.21;99.08;112049.66;5073236;28;20475;-73
2022/04/19 06:41:06;;;;;;;3.93;3.27;;;12.90;56.10;;;-142.21;96.15;112049.66;5072979;28;20470;-73
2022/04/19 06:43:33;;;;;;;5.37;3.73;;;13.20;55.30;;;-142.21;93.09;112049.66;5072032;28;20516;-73
2022/04/19 06:46:00;;;;;;;4.43;3.17;;;13.20;54.00;;;-142.21;94.10;112049.66;5071713;28;20475;-74
2022/04/19 06:48:29;;;;;;;4.80;3.17;;;13.40;55.00;;;-142.21;90.06;112049.66;5072218;28;20457;-74
2022/04/19 06:50:58;;;;;;;3.77;3.43;;;13.80;53.70;;;-142.21;90.16;112049.66;5072694;28;20562;-73
2022/04/19 06:53:29;;;;;;;5.40;3.60;;;14.20;52.90;;;-142.21;90.02;112049.66;5071221;28;20448;-73
2022/04/19 06:55:57;;;;;;;4.27;3.03;;;14.70;52.40;;;-142.21;91.20;112049.66;5071630;28;20746;-74
2022/04/19 06:58:24;;;;;;;4.83;3.20;;;14.90;52.80;;;-142.21;90.95;112049.66;5071686;28;20447;-74
2022/04/19 07:00:51;;;;;;;3.97;3.30;;;15.00;52.00;;;-142.21;84.35;112049.66;5070709;28;20967;-73
2022/04/19 07:03:18;;;;;;;4.13;3.30;;;15.40;50.70;;;-142.21;85.95;112049.66;5072172;28;20452;-74
2022/04/19 07:05:45;;;;;;;3.90;3.00;;;16.10;49.30;;;-142.21;88.91;112049.66;5072085;28;20445;-74
2022/04/19 07:08:14;;;;;;;3.60;3.17;;;16.10;49.80;;;-142.21;87.95;112049.66;5072582;28;20475;-74
2022/04/19 07:10:41;;;;;;;5.23;3.67;;;15.90;50.10;;;-142.21;90.25;112049.66;5071934;28;20487;-73
2022/04/19 07:13:10;;;;;;;3.47;3.03;;;15.60;51.30;;;-142.21;91.87;112049.66;5070635;28;20447;-74
2022/04/19 07:15:37;;;;;;;3.37;3.07;;;15.50;52.30;;;-142.21;89.53;112049.66;5068690;28;20452;-74
2022/04/19 07:18:04;;;;;;;5.30;3.57;;;15.40;51.00;;;-142.21;90.71;112049.66;5067978;28;20504;-74
2022/04/19 07:28:47;;;;;;;3.73;3.40;;;15.20;51.30;;;-142.21;76.99;112049.66;5070604;28;20576;-73
2022/04/19 07:31:14;;;;;;;4.33;3.10;;;15.30;49.70;;;-142.21;81.98;112049.66;5071326;28;20890;-73
2022/04/19 07:33:41;;;;;;;3.57;3.27;;;15.20;51.60;;;-142.21;73.86;112049.66;5072074;28;21011;-73
2022/04/19 07:36:08;;;;;;;4.10;3.53;;;15.20;50.30;;;-142.21;86.33;112049.66;5071683;28;20445;-73
2022/04/19 07:38:37;;;;;;;6.13;3.73;;;15.50;52.50;;;-142.21;75.18;112049.66;5072213;28;20448;-73
2022/04/19 07:41:04;;;;;;;4.27;3.40;;;17.00;49.20;;;-142.21;75.93;112049.66;5071504;28;20447;-73
2022/04/19 07:43:32;;;;;;;5.50;3.80;;;17.90;47.10;;;-142.21;73.53;112049.66;5070091;28;20447;-73
2022/04/19 07:45:59;;;;;;;4.93;3.50;;;17.30;47.70;;;-142.21;78.46;112049.66;5070564;28;20447;-73
2022/04/19 07:48:26;;;;;;;4.23;3.20;;;17.40;48.50;;;-142.21;74.69;112049.66;5072397;28;20481;-73
2022/04/19 07:50:53;;;;;;;3.63;3.10;;;17.50;48.20;;;-142.21;77.85;112049.66;5068151;28;20476;-73
2022/04/19 07:53:21;;;;;;;3.90;3.60;;;17.50;48.80;;;-142.21;77.25;112049.66;5070350;28;20538;-73
2022/04/19 07:55:50;;;;;;;4.10;3.40;;;17.30;48.20;;;-142.21;70.91;112049.66;5069885;28;20861;-73
2022/04/19 07:58:17;;;;;;;5.67;4.00;;;17.70;46.80;;;-142.21;81.74;112049.66;5063489;28;20450;-72
2022/04/19 08:00:44;;;;;;;4.17;3.40;;;17.30;48.10;;;-142.21;77.02;112049.66;5071757;28;20439;-73
2022/04/19 08:03:11;;;;;;;4.87;3.80;;;17.40;48.80;;;-142.21;69.74;112049.66;5071408;28;20455;-73
2022/04/19 08:05:39;;;;;;;4.43;3.30;;;17.40;47.00;;;-142.21;80.84;112049.66;5071949;28;20483;-73
2022/04/19 08:08:06;;;;;;;4.77;3.57;;;17.30;48.30;;;-142.21;77.96;112049.66;5071312;28;20448;-73
2022/04/19 08:10:34;;;;;;;4.73;3.63;;;17.30;48.90;;;-142.21;70.04;112049.66;5071198;28;20491;-73
2022/04/19 08:13:04;;;;;;;4.57;3.40;;;17.30;46.90;;;-142.21;69.48;112049.66;5071977;28;20535;-74
2022/04/19 08:15:31;;;;;;;5.40;3.90;;;17.10;47.20;;;-142.21;74.43;112049.66;5072609;28;20439;-73
2022/04/19 08:17:59;;;;;;;7.60;3.73;;;17.00;48.90;;;-142.21;72.36;112049.66;5075446;28;20447;-74
2022/04/19 08:20:26;;;;;;;4.57;3.90;;;17.00;49.10;;;-142.21;67.61;112049.66;5038879;28;20448;-74
2022/04/19 08:22:53;;;;;;;5.80;3.60;;;16.90;48.00;;;-142.21;65.49;112049.66;5074872;28;20459;-72
2022/04/19 08:25:22;;;;;;;4.73;3.63;;;16.90;47.50;;;-142.21;66.74;112049.66;5075579;28;21032;-74
2022/04/19 08:27:50;;;;;;;4.27;3.50;;;17.00;47.60;;;-142.21;64.66;112049.66;5078443;28;20479;-74
2022/04/19 08:30:21;;;;;;;4.13;3.53;;;17.00;48.30;;;-142.21;62.34;112049.66;5073981;28;20482;-71
2022/04/19 08:32:48;;;;;;;6.00;3.70;;;16.90;47.60;;;-142.21;62.95;112049.66;5040154;28;20494;-73
2022/04/19 08:35:17;;;;;;;4.37;3.67;;;17.10;47.50;;;-142.21;65.56;112049.66;5078677;28;20440;-74
2022/04/19 08:37:45;;;;;;;5.10;3.50;;;17.20;48.30;;;-142.21;61.25;112049.66;5077747;28;20443;-73
2022/04/19 08:40:14;;;;;;;4.87;3.53;;;17.30;47.20;;;-142.21;58.75;112049.66;5074444;28;20532;-72
2022/04/19 08:42:42;;;;;;;3.50;2.90;;;17.30;46.40;;;-142.21;63.15;112049.66;5068742;28;20475;-72
2022/04/19 08:45:13;;;;;;;4.50;2.87;;;17.50;47.50;;;-142.21;57.93;112049.66;5074973;28;20818;-72
2022/04/19 08:47:44;;;;;;;3.70;3.30;;;17.50;46.50;;;-142.21;58.44;112049.66;5074115;28;20428;-72
2022/04/19 08:50:14;;;;;;;4.87;3.10;;;17.80;47.10;;;-142.21;59.35;112049.66;5073201;28;20481;-73
2022/04/19 08:52:42;;;;;;;3.57;3.00;;;18.10;46.10;;;-142.21;60.29;112049.66;5074746;28;20780;-73
2022/04/19 08:57:57;;;;;;;5.97;3.67;;;18.90;46.60;;;-142.21;49.39;112049.66;5074058;28;20438;-74
2022/04/19 09:00:25;;;;;;;5.87;3.17;;;19.10;44.30;;;-142.21;46.68;112049.66;5068926;28;21022;-77
2022/04/19 09:02:56;;;;;;;5.07;3.00;;;19.40;43.80;;;-142.21;43.86;112049.66;5063649;28;20975;-76
2022/04/19 09:05:28;;;;;;;4.27;3.50;;;20.60;43.30;;;-142.21;41.74;112049.66;5074425;28;20526;-75
2022/04/19 09:07:58;;;;;;;3.97;3.03;;;22.70;41.80;;;-142.21;37.01;112049.66;5075724;28;20186;-76
2022/04/19 09:10:30;;;;;;;4.07;3.10;;;27.60;37.60;;;-142.21;31.48;112049.66;5072648;28;20228;-75
2022/04/19 09:13:06;;;;;;;3.70;2.63;;;31.40;31.40;;;-142.21;30.67;112049.66;5073452;28;20209;-76
2022/04/19 09:15:39;;;;;;;4.57;3.03;;;34.40;28.10;;;-142.21;29.73;112049.66;5073085;28;20584;-75
2022/04/19 09:18:21;;;;;;;3.93;2.93;;;36.30;27.00;;;-142.21;30.34;112049.66;5073540;28;20189;-76
2022/04/19 09:20:50;;;;;;;5.10;2.60;;;38.30;24.60;;;-142.21;31.11;112049.66;5073607;28;20196;-77
2022/04/19 09:23:21;;;;;;;4.17;3.00;;;39.70;24.40;;;-142.21;33.89;112049.66;5072928;28;20194;-76
2022/04/19 09:25:52;;;;;;;3.83;3.47;;;40.30;23.80;;;-142.21;33.04;112049.66;5073629;28;20191;-75
2022/04/19 09:28:22;;;;;;;4.17;3.20;;;37.10;23.60;;;-142.21;35.13;112049.66;5069195;28;20227;-76
2022/04/19 09:30:52;;;;;;;4.57;3.93;;;34.40;25.70;;;-142.21;33.80;112049.66;5073719;28;20215;-75
2022/04/19 09:33:22;;;;;;;4.50;3.30;;;31.80;26.20;;;-142.21;36.54;112049.66;5067969;28;20201;-77
2022/04/19 09:35:53;;;;;;;4.57;3.50;;;30.00;28.40;;;-142.21;35.55;112049.66;5073228;28;20198;-76
2022/04/19 09:38:37;;;;;;;5.27;3.87;;;28.60;29.00;;;-142.21;35.32;112049.66;5073364;28;20266;-74
2022/04/19 09:41:05;;;;;;;4.70;3.77;;;27.40;29.00;;;-142.21;35.84;112049.66;5071537;28;20213;-74
2022/04/19 09:43:33;;;;;;;3.93;3.53;;;26.40;31.00;;;-142.21;35.96;112049.66;5053495;28;20225;-76
2022/04/19 09:46:03;;;;;;;4.50;3.57;;;25.70;32.50;;;-142.21;35.36;112049.66;5074318;28;20209;-75
2022/04/19 09:48:35;;;;;;;5.67;3.90;;;25.20;32.30;;;-142.21;34.26;112049.66;5070541;28;20658;-74
2022/04/19 09:51:04;;;;;;;3.77;3.40;;;24.80;32.20;;;-142.21;33.58;112049.66;5067154;28;20187;-75
2022/04/19 09:53:42;;;;;;;5.70;3.93;;;24.50;31.40;;;-142.21;34.05;112049.66;5072824;28;20218;-75
2022/04/19 09:56:11;;;;;;;3.77;3.37;;;24.30;32.70;;;-142.21;34.38;112049.66;5073716;28;20201;-75
2022/04/19 09:58:39;;;;;;;4.10;3.33;;;24.10;33.10;;;-142.21;34.82;112049.66;5072417;28;20200;-76
2022/04/19 10:01:06;;;;;;;4.03;3.20;;;23.90;33.20;;;-142.21;35.07;112049.66;5073144;28;20226;-76
2022/04/19 10:09:07;;;;;;;6.07;3.10;;;23.80;33.50;;;-142.21;34.14;112049.66;5068544;28;20200;-74
2022/04/19 10:11:35;;;;;;;5.40;3.47;;;23.50;33.50;;;-142.21;33.47;112049.66;5073507;28;20299;-74
2022/04/19 10:14:04;;;;;;;5.90;3.20;;;23.40;33.80;;;-142.21;33.22;112049.66;5073305;28;20204;-75
2022/04/19 10:16:33;;;;;;;3.17;2.80;;;23.50;33.10;;;-142.21;34.80;112049.66;5061470;28;20622;-77
2022/04/19 10:19:02;;;;;;;4.73;3.77;;;23.50;33.50;;;-142.21;31.68;112049.66;5068351;28;20204;-75
2022/04/19 10:21:34;;;;;;;4.63;3.00;;;23.50;31.70;;;-142.21;32.14;112049.66;5073242;28;20221;-75
2022/04/19 10:24:13;;;;;;;3.90;3.07;;;23.50;32.50;;;-142.21;31.06;112049.66;5072065;28;20194;-75
2022/04/19 10:26:49;;;;;;;3.60;2.53;;;23.70;31.40;;;-142.21;31.82;112049.66;5056927;28;20233;-78
2022/04/19 10:29:22;;;;;;;2.90;2.13;;;23.80;32.30;;;-142.21;31.01;112049.66;5052903;28;20238;-77
2022/04/19 10:32:01;;;;;;;4.27;3.43;;;24.00;31.60;;;-142.21;31.37;112049.66;5052981;28;20315;-76
2022/04/19 10:34:33;;;;;;;5.07;3.43;;;24.10;31.60;;;-142.21;31.19;112049.66;5068651;28;20280;-78
2022/04/19 10:37:23;;;;;;;4.23;3.20;;;24.20;32.00;;;-142.21;32.63;112049.66;5072670;28;20187;-79